Time;durP1;ratioP1;P1;durP2;ratioP2;P2;SDS_P1;SDS_P2;PMS_P1;PMS_P2;Temp;Humidity;BMP_temperature;BMP_pressure;BME280_temperature;BME280_humidity;BME280_pressure;Samples;Min_cycle;Max_cycle;Signal;HPM_P1;HPM_P2
2022/11/22 17:09:44;;;;;;;8.43;3.13;;;;;;;7.61;78.12;96559.75;6180046;23;20043;-64
2022/11/22 17:12:27;;;;;;;10.30;4.05;;;;;;;7.67;77.51;96582.69;6184681;23;20327;-64
2022/11/22 17:14:53;;;;;;;8.27;3.25;;;;;;;7.62;77.96;96579.66;6157891;23;20023;-63
2022/11/22 17:17:19;;;;;;;7.80;3.72;;;;;;;7.59;77.53;96588.56;6158905;23;20005;-63
2022/11/22 17:19:44;;;;;;;9.65;3.40;;;;;;;7.56;77.57;96588.81;6134342;23;20028;-64
2022/11/22 17:22:13;;;;;;;9.32;3.53;;;;;;;7.55;78.27;96591.56;6158434;23;20071;-65
2022/11/22 17:24:39;;;;;;;9.20;3.75;;;;;;;7.53;78.46;96601.28;6158383;23;20032;-64
2022/11/22 17:27:04;;;;;;;9.90;3.72;;;;;;;7.52;78.64;96597.00;6185099;23;19997;-64
2022/11/22 17:29:30;;;;;;;7.80;3.40;;;;;;;7.49;78.92;96607.69;6184736;23;20080;-67
2022/11/22 17:31:55;;;;;;;8.88;4.20;;;;;;;7.47;79.07;96605.22;6184943;23;20426;-64
2022/11/22 17:34:20;;;;;;;10.07;4.82;;;;;;;7.45;78.71;96606.28;6158603;23;20008;-65
2022/11/22 17:36:46;;;;;;;10.63;4.75;;;;;;;7.42;79.25;96611.75;6184468;23;20001;-67
2022/11/22 17:39:11;;;;;;;11.70;5.07;;;;;;;7.36;79.10;96608.72;6184866;23;20054;-66
2022/11/22 17:41:37;;;;;;;11.50;5.38;;;;;;;7.35;79.67;96617.47;6158931;23;20019;-66
2022/11/22 17:44:02;;;;;;;11.50;5.45;;;;;;;7.31;79.42;96615.25;6184569;23;20104;-64
2022/11/22 17:46:28;;;;;;;11.88;5.82;;;;;;;7.26;79.80;96618.22;6157897;23;20462;-66
2022/11/22 17:48:56;;;;;;;11.68;6.20;;;;;;;7.23;79.60;96613.25;6158913;23;20476;-66
2022/11/22 17:51:21;;;;;;;13.13;5.88;;;;;;;7.21;79.41;96620.34;6134739;23;20005;-66
2022/11/22 17:53:47;;;;;;;11.93;5.72;;;;;;;7.18;79.52;96620.59;6157959;23;20005;-63
2022/11/22 17:56:12;;;;;;;11.65;6.07;;;;;;;7.16;79.71;96627.75;6158454;23;20316;-65
2022/11/22 17:58:38;;;;;;;11.38;6.00;;;;;;;7.12;79.71;96632.38;6184681;23;20326;-64
2022/11/22 18:01:05;;;;;;;12.70;5.68;;;;;;;7.10;80.72;96638.66;6157785;23;20470;-66
2022/11/22 18:03:31;;;;;;;10.75;5.35;;;;;;;7.09;80.18;96640.44;6185209;23;20047;-64
2022/11/22 18:05:57;;;;;;;13.25;5.18;;;;;;;7.05;80.48;96633.78;6158473;23;20498;-65
2022/11/22 18:08:22;;;;;;;12.48;5.80;;;;;;;7.07;80.37;96633.66;6184524;23;20005;-65
2022/11/22 18:10:51;;;;;;;13.63;5.68;;;;;;;7.04;80.90;96636.53;6184606;23;20012;-65
2022/11/22 18:13:18;;;;;;;11.82;6.22;;;;;;;7.02;81.10;96641.00;6184631;23;20024;-64
2022/11/22 18:15:44;;;;;;;14.10;7.18;;;;;;;7.01;80.94;96647.19;6133329;23;20059;-65
2022/11/22 18:18:09;;;;;;;15.23;6.55;;;;;;;6.97;81.09;96648.38;6184582;23;20014;-68
2022/11/22 18:20:35;;;;;;;14.25;7.78;;;;;;;6.98;80.61;96656.06;6158250;23;20529;-66
2022/11/22 18:23:00;;;;;;;15.48;8.27;;;;;;;6.95;80.97;96655.47;6157645;23;20001;-66
2022/11/22 18:25:26;;;;;;;14.05;7.75;;;;;;;6.94;81.12;96652.03;6158022;23;20015;-66
2022/11/22 18:27:51;;;;;;;14.85;8.63;;;;;;;6.93;81.36;96652.19;6157477;23;20415;-66
2022/11/22 18:30:17;;;;;;;16.15;8.88;;;;;;;6.92;81.26;96647.91;6184713;23;20054;-66
2022/11/22 18:32:42;;;;;;;14.00;8.68;;;;;;;6.90;81.50;96655.84;6157812;23;20028;-67
2022/11/22 18:35:07;;;;;;;17.67;10.50;;;;;;;6.89;81.61;96655.03;6184431;23;20009;-67
2022/11/22 18:37:33;;;;;;;12.88;8.18;;;;;;;6.91;81.33;96654.91;6184259;23;20005;-66
2022/11/22 18:39:58;;;;;;;13.18;7.10;;;;;;;6.89;81.74;96657.63;6133774;23;19996;-67
2022/11/22 18:42:24;;;;;;;14.43;8.10;;;;;;;6.89;81.76;96667.22;6183498;23;20009;-65
2022/11/22 18:44:49;;;;;;;12.15;7.25;;;;;;;6.88;81.14;96670.78;6133430;23;20009;-66
2022/11/22 18:47:14;;;;;;;13.10;7.40;;;;;;;6.88;81.50;96670.78;6184381;23;20008;-66
2022/11/22 18:49:40;;;;;;;15.73;9.45;;;;;;;6.86;81.43;96667.47;6133764;23;20338;-66
2022/11/22 18:52:05;;;;;;;14.63;8.52;;;;;;;6.85;81.95;96671.84;6157539;23;20009;-69
2022/11/22 18:54:31;;;;;;;14.35;8.25;;;;;;;6.82;80.60;96677.31;6156555;23;20005;-65
2022/11/22 18:56:56;;;;;;;15.73;8.80;;;;;;;6.76;80.69;96680.38;6158033;23;20005;-64
2022/11/22 18:59:21;;;;;;;14.68;8.60;;;;;;;6.75;81.42;96678.72;6156814;23;20004;-66
2022/11/22 19:01:47;;;;;;;15.98;8.93;;;;;;;6.73;81.62;96682.41;6184594;23;20005;-65
2022/11/22 19:04:13;;;;;;;15.25;8.35;;;;;;;6.69;82.02;96684.41;6182889;23;20419;-66
2022/11/22 19:06:39;;;;;;;15.07;7.95;;;;;;;6.68;81.46;96682.75;6183888;23;20439;-65
2022/11/22 19:09:05;;;;;;;12.73;7.10;;;;;;;6.62;81.37;96678.00;6157708;23;20009;-66
2022/11/22 19:11:31;;;;;;;13.20;7.80;;;;;;;6.61;82.23;96674.59;6183594;23;20080;-66
2022/11/22 19:13:56;;;;;;;15.85;7.85;;;;;;;6.66;82.46;96676.81;6183964;23;20011;-67
2022/11/22 19:16:21;;;;;;;36.20;19.20;;;;;;;6.65;82.46;96677.78;6183753;23;20008;-65
2022/11/22 19:18:47;;;;;;;33.08;20.10;;;;;;;6.64;81.85;96679.56;6183613;23;20011;-66
2022/11/22 19:21:16;;;;;;;26.77;14.98;;;;;;;6.68;81.86;96680.16;6157268;23;20338;-67
2022/11/22 19:23:42;;;;;;;26.67;15.90;;;;;;;6.69;82.25;96671.38;6157033;23;20011;-65
2022/11/22 19:26:09;;;;;;;25.25;15.90;;;;;;;6.70;81.92;96669.59;6158075;23;20005;-65
2022/11/22 19:28:34;;;;;;;30.13;18.40;;;;;;;6.71;82.09;96672.09;6156322;23;20005;-65
2022/11/22 19:31:05;;;;;;;34.67;20.05;;;;;;;6.72;82.36;96671.16;6183716;23;20004;-65
2022/11/22 19:33:31;;;;;;;33.30;19.02;;;;;;;6.73;81.81;96675.41;6158543;23;19996;-65
2022/11/22 19:35:56;;;;;;;45.75;24.77;;;;;;;6.75;82.35;96675.31;6183182;23;20312;-65
2022/11/22 19:38:22;;;;;;;40.00;24.27;;;;;;;6.75;81.54;96672.69;6157193;23;20005;-65
2022/11/22 19:40:47;;;;;;;28.17;17.63;;;;;;;6.76;81.95;96672.56;6183590;23;20009;-66
2022/11/22 19:43:12;;;;;;;22.88;15.18;;;;;;;6.76;82.12;96677.78;6157451;23;20008;-65
2022/11/22 19:45:38;;;;;;;19.02;11.70;;;;;;;6.79;81.90;96677.53;6182981;23;20051;-66
2022/11/22 19:48:03;;;;;;;16.80;9.73;;;;;;;6.81;82.19;96680.88;6132498;23;20061;-66
2022/11/22 19:50:29;;;;;;;15.82;8.82;;;;;;;6.84;82.05;96687.59;6183756;23;20013;-66
2022/11/22 19:52:54;;;;;;;19.42;9.20;;;;;;;6.84;81.78;96691.03;6183106;23;20005;-67
2022/11/22 19:55:20;;;;;;;18.67;8.45;;;;;;;6.88;81.74;96689.88;6183415;23;20338;-66
2022/11/22 19:57:45;;;;;;;15.20;8.30;;;;;;;6.88;82.00;96692.47;6183847;23;20072;-66
2022/11/22 20:00:11;;;;;;;17.35;8.77;;;;;;;6.89;81.96;96686.31;6183355;23;20053;-66
2022/11/22 20:02:37;;;;;;;14.88;9.15;;;;;;;6.89;81.17;96688.91;6157191;23;20012;-67
2022/11/22 20:05:02;;;;;;;21.70;10.13;;;;;;;6.91;81.83;96691.38;6183083;23;20005;-65
2022/11/22 20:07:28;;;;;;;17.83;9.02;;;;;;;6.93;81.18;96688.69;6157071;23;20030;-66
2022/11/22 20:09:54;;;;;;;14.25;8.32;;;;;;;6.92;80.52;96697.41;6157470;23;20378;-65
2022/11/22 20:12:19;;;;;;;15.63;8.80;;;;;;;6.90;80.57;96698.38;6182443;23;20027;-66
2022/11/22 20:14:44;;;;;;;15.82;8.50;;;;;;;6.92;80.64;96698.28;6182750;23;20035;-65
2022/11/22 20:17:10;;;;;;;14.23;7.95;;;;;;;6.93;80.89;96701.72;6180652;23;20491;-67
2022/11/22 20:19:36;;;;;;;16.30;8.30;;;;;;;6.94;81.41;96711.19;6155271;23;20059;-67
2022/11/22 20:22:01;;;;;;;17.88;8.45;;;;;;;6.95;80.92;96708.47;6181883;23;20055;-68
2022/11/22 20:24:28;;;;;;;14.23;7.88;;;;;;;6.97;81.27;96722.19;6181781;23;20010;-66
2022/11/22 20:26:54;;;;;;;16.35;8.38;;;;;;;6.95;81.17;96712.81;6183430;23;20013;-66
2022/11/22 20:29:21;;;;;;;15.43;7.63;;;;;;;6.97;80.98;96718.75;6156038;23;20013;-66
2022/11/22 20:31:47;;;;;;;14.75;7.35;;;;;;;7.00;81.33;96723.75;6156168;23;20024;-67
2022/11/22 20:34:14;;;;;;;15.00;7.55;;;;;;;6.99;81.26;96724.69;6182503;23;20072;-66
2022/11/22 20:36:40;;;;;;;14.32;7.53;;;;;;;6.97;81.14;96723.97;6182871;23;20009;-66
2022/11/22 20:39:07;;;;;;;14.75;8.13;;;;;;;6.97;81.24;96726.59;6181655;23;20523;-66
2022/11/22 20:41:32;;;;;;;16.42;8.73;;;;;;;7.02;81.00;96732.25;6183249;23;20063;-65
2022/11/22 20:43:58;;;;;;;17.17;9.18;;;;;;;7.02;81.29;96730.50;6182457;23;20005;-66
2022/11/22 20:46:24;;;;;;;14.70;8.60;;;;;;;7.03;80.95;96731.31;6183295;23;20034;-65
2022/11/22 20:48:51;;;;;;;14.27;7.60;;;;;;;7.01;79.70;96738.44;6129307;23;20020;-65
2022/11/22 20:51:18;;;;;;;11.90;6.97;;;;;;;6.88;78.31;96734.19;6183409;23;20068;-66
2022/11/22 20:53:44;;;;;;;10.63;6.18;;;;;;;6.80;78.76;96736.53;6155878;23;20016;-66
2022/11/22 20:56:10;;;;;;;15.00;7.03;;;;;;;6.73;78.30;96730.13;6156204;23;20080;-66
2022/11/22 20:58:36;;;;;;;11.88;6.22;;;;;;;6.68;79.20;96726.22;6182751;23;20029;-65
2022/11/22 21:01:23;;;;;;;12.88;6.68;;;;;;;6.61;78.77;96725.88;6182563;23;20005;-67
